sensor_id;sensor_type;location;lat;lon;timestamp;P1;durP1;ratioP1;P2;durP2;ratioP2
2564;SDS011;1292;48.020;7.822;2023-09-18T05:45:23;4.67;;;1.90;;
2564;SDS011;1292;48.020;7.822;2023-09-18T05:47:52;3.53;;;2.30;;
2564;SDS011;1292;48.020;7.822;2023-09-18T05:50:19;2.07;;;1.77;;
2564;SDS011;1292;48.020;7.822;2023-09-18T05:52:46;3.10;;;1.80;;
2564;SDS011;1292;48.020;7.822;2023-09-18T05:55:14;5.70;;;1.77;;
2564;SDS011;1292;48.020;7.822;2023-09-18T05:57:41;4.70;;;2.57;;
2564;SDS011;1292;48.020;7.822;2023-09-18T06:00:08;2.27;;;2.07;;
2564;SDS011;1292;48.020;7.822;2023-09-18T06:02:39;10.27;;;2.40;;
2564;SDS011;1292;48.020;7.822;2023-09-18T06:05:06;1.87;;;1.70;;
2564;SDS011;1292;48.020;7.822;2023-09-18T06:07:36;6.67;;;2.43;;
2564;SDS011;1292;48.020;7.822;2023-09-18T06:10:03;5.47;;;2.13;;
2564;SDS011;1292;48.020;7.822;2023-09-18T06:12:31;4.53;;;1.67;;
2564;SDS011;1292;48.020;7.822;2023-09-18T06:14:58;6.70;;;2.30;;
2564;SDS011;1292;48.020;7.822;2023-09-18T06:17:24;2.33;;;1.97;;
2564;SDS011;1292;48.020;7.822;2023-09-18T06:19:53;6.43;;;1.83;;
2564;SDS011;1292;48.020;7.822;2023-09-18T06:22:20;7.53;;;1.77;;
2564;SDS011;1292;48.020;7.822;2023-09-18T06:24:47;2.50;;;1.40;;
2564;SDS011;1292;48.020;7.822;2023-09-18T06:27:14;4.40;;;1.60;;
2564;SDS011;1292;48.020;7.822;2023-09-18T06:29:41;1.50;;;1.40;;
2564;SDS011;1292;48.020;7.822;2023-09-18T06:32:08;2.10;;;1.57;;
2564;SDS011;1292;48.020;7.822;2023-09-18T06:34:34;1.40;;;1.30;;
2564;SDS011;1292;48.020;7.822;2023-09-18T06:37:03;4.63;;;1.50;;
2564;SDS011;1292;48.020;7.822;2023-09-18T06:39:31;3.30;;;1.60;;
2564;SDS011;1292;48.020;7.822;2023-09-18T06:41:58;3.73;;;1.50;;
2564;SDS011;1292;48.020;7.822;2023-09-18T06:44:25;3.67;;;1.70;;
2564;SDS011;1292;48.020;7.822;2023-09-18T06:46:52;3.43;;;1.97;;
2564;SDS011;1292;48.020;7.822;2023-09-18T06:49:18;3.90;;;1.63;;
2564;SDS011;1292;48.020;7.822;2023-09-18T06:51:45;5.47;;;1.97;;
2564;SDS011;1292;48.020;7.822;2023-09-18T06:54:14;6.70;;;2.10;;
2564;SDS011;1292;48.020;7.822;2023-09-18T06:56:41;7.47;;;2.10;;
2564;SDS011;1292;48.020;7.822;2023-09-18T06:59:09;6.47;;;1.90;;
2564;SDS011;1292;48.020;7.822;2023-09-18T07:01:37;2.93;;;1.40;;
2564;SDS011;1292;48.020;7.822;2023-09-18T07:04:04;3.13;;;1.70;;
2564;SDS011;1292;48.020;7.822;2023-09-18T07:06:31;5.37;;;1.43;;
2564;SDS011;1292;48.020;7.822;2023-09-18T07:08:58;2.50;;;1.60;;
2564;SDS011;1292;48.020;7.822;2023-09-18T07:11:26;14.00;;;2.23;;
2564;SDS011;1292;48.020;7.822;2023-09-18T07:13:53;1.50;;;1.37;;
2564;SDS011;1292;48.020;7.822;2023-09-18T07:16:20;3.07;;;2.23;;
2564;SDS011;1292;48.020;7.822;2023-09-18T07:18:46;3.63;;;1.40;;
2564;SDS011;1292;48.020;7.822;2023-09-18T07:21:13;4.20;;;1.50;;
2564;SDS011;1292;48.020;7.822;2023-09-18T07:23:40;2.77;;;1.37;;
2564;SDS011;1292;48.020;7.822;2023-09-18T07:26:07;4.87;;;1.87;;
2564;SDS011;1292;48.020;7.822;2023-09-18T07:28:35;3.83;;;1.23;;
2564;SDS011;1292;48.020;7.822;2023-09-18T07:31:04;2.77;;;1.20;;
2564;SDS011;1292;48.020;7.822;2023-09-18T07:33:32;3.73;;;1.87;;
2564;SDS011;1292;48.020;7.822;2023-09-18T07:35:58;5.83;;;1.70;;
2564;SDS011;1292;48.020;7.822;2023-09-18T07:38:25;4.60;;;1.43;;
2564;SDS011;1292;48.020;7.822;2023-09-18T07:40:52;3.23;;;1.43;;
2564;SDS011;1292;48.020;7.822;2023-09-18T07:43:19;2.30;;;1.43;;
2564;SDS011;1292;48.020;7.822;2023-09-18T07:45:48;1.90;;;1.37;;
2564;SDS011;1292;48.020;7.822;2023-09-18T07:48:15;4.83;;;1.40;;
2564;SDS011;1292;48.020;7.822;2023-09-18T07:50:45;8.23;;;1.93;;
2564;SDS011;1292;48.020;7.822;2023-09-18T07:53:14;3.57;;;1.90;;
2564;SDS011;1292;48.020;7.822;2023-09-18T07:55:41;6.00;;;1.90;;
2564;SDS011;1292;48.020;7.822;2023-09-18T07:58:08;4.83;;;2.00;;
2564;SDS011;1292;48.020;7.822;2023-09-18T08:00:35;1.40;;;1.30;;
2564;SDS011;1292;48.020;7.822;2023-09-18T08:03:03;5.90;;;1.60;;
2564;SDS011;1292;48.020;7.822;2023-09-18T08:05:30;2.27;;;1.60;;
2564;SDS011;1292;48.020;7.822;2023-09-18T08:07:57;5.47;;;1.63;;
2564;SDS011;1292;48.020;7.822;2023-09-18T08:10:24;3.93;;;1.40;;
2564;SDS011;1292;48.020;7.822;2023-09-18T08:12:51;3.80;;;1.47;;
2564;SDS011;1292;48.020;7.822;2023-09-18T08:15:18;2.90;;;1.43;;
2564;SDS011;1292;48.020;7.822;2023-09-18T08:17:46;1.90;;;1.07;;
2564;SDS011;1292;48.020;7.822;2023-09-18T08:20:15;7.17;;;1.70;;
2564;SDS011;1292;48.020;7.822;2023-09-18T08:22:42;2.00;;;1.40;;
2564;SDS011;1292;48.020;7.822;2023-09-18T08:25:10;5.13;;;1.63;;
2564;SDS011;1292;48.020;7.822;2023-09-18T08:27:37;2.20;;;1.33;;
2564;SDS011;1292;48.020;7.822;2023-09-18T08:30:07;1.83;;;1.57;;
2564;SDS011;1292;48.020;7.822;2023-09-18T08:32:35;1.30;;;1.20;;
2564;SDS011;1292;48.020;7.822;2023-09-18T08:35:02;1.50;;;1.40;;
2564;SDS011;1292;48.020;7.822;2023-09-18T08:37:30;3.77;;;1.07;;
2564;SDS011;1292;48.020;7.822;2023-09-18T08:39:57;2.67;;;1.40;;
2564;SDS011;1292;48.020;7.822;2023-09-18T08:42:24;5.93;;;1.80;;
2564;SDS011;1292;48.020;7.822;2023-09-18T08:44:54;3.40;;;1.60;;
2564;SDS011;1292;48.020;7.822;2023-09-18T08:47:24;3.77;;;2.00;;
2564;SDS011;1292;48.020;7.822;2023-09-18T08:49:52;1.53;;;1.33;;
2564;SDS011;1292;48.020;7.822;2023-09-18T08:52:20;4.17;;;1.30;;
2564;SDS011;1292;48.020;7.822;2023-09-18T08:54:49;2.43;;;1.20;;
2564;SDS011;1292;48.020;7.822;2023-09-18T08:57:18;2.33;;;1.63;;
2564;SDS011;1292;48.020;7.822;2023-09-18T08:59:45;4.97;;;1.40;;
2564;SDS011;1292;48.020;7.822;2023-09-18T09:02:15;2.40;;;1.30;;
2564;SDS011;1292;48.020;7.822;2023-09-18T09:04:42;3.37;;;1.43;;
2564;SDS011;1292;48.020;7.822;2023-09-18T09:07:09;1.50;;;1.40;;
2564;SDS011;1292;48.020;7.822;2023-09-18T09:09:36;1.80;;;1.40;;
2564;SDS011;1292;48.020;7.822;2023-09-18T09:12:05;2.00;;;1.40;;
2564;SDS011;1292;48.020;7.822;2023-09-18T09:14:32;1.70;;;1.27;;
2564;SDS011;1292;48.020;7.822;2023-09-18T09:16:59;3.07;;;1.33;;
2564;SDS011;1292;48.020;7.822;2023-09-18T09:19:28;4.20;;;1.10;;
2564;SDS011;1292;48.020;7.822;2023-09-18T09:21:56;4.30;;;1.53;;
2564;SDS011;1292;48.020;7.822;2023-09-18T09:24:35;4.40;;;0.97;;
2564;SDS011;1292;48.020;7.822;2023-09-18T09:27:04;2.20;;;1.10;;
2564;SDS011;1292;48.020;7.822;2023-09-18T09:29:31;2.03;;;1.17;;
2564;SDS011;1292;48.020;7.822;2023-09-18T09:32:11;4.83;;;1.37;;
2564;SDS011;1292;48.020;7.822;2023-09-18T09:34:41;1.83;;;1.40;;
2564;SDS011;1292;48.020;7.822;2023-09-18T09:37:08;1.33;;;1.23;;
2564;SDS011;1292;48.020;7.822;2023-09-18T09:39:46;2.37;;;1.30;;
2564;SDS011;1292;48.020;7.822;2023-09-18T09:42:19;1.77;;;1.40;;
2564;SDS011;1292;48.020;7.822;2023-09-18T09:45:01;2.20;;;1.80;;
2564;SDS011;1292;48.020;7.822;2023-09-18T09:47:45;2.43;;;1.27;;
2564;SDS011;1292;48.020;7.822;2023-09-18T09:50:13;2.00;;;0.80;;
2564;SDS011;1292;48.020;7.822;2023-09-18T09:52:44;2.20;;;1.20;;
2564;SDS011;1292;48.020;7.822;2023-09-18T09:55:24;1.70;;;1.27;;
2564;SDS011;1292;48.020;7.822;2023-09-18T09:58:00;3.47;;;1.43;;
2564;SDS011;1292;48.020;7.822;2023-09-18T10:00:46;4.20;;;1.33;;
2564;SDS011;1292;48.020;7.822;2023-09-18T10:03:16;3.30;;;1.13;;
2564;SDS011;1292;48.020;7.822;2023-09-18T10:05:44;2.83;;;1.50;;
2564;SDS011;1292;48.020;7.822;2023-09-18T10:08:17;1.53;;;1.23;;
2564;SDS011;1292;48.020;7.822;2023-09-18T10:10:47;4.93;;;1.20;;
2564;SDS011;1292;48.020;7.822;2023-09-18T10:13:23;1.60;;;1.00;;
2564;SDS011;1292;48.020;7.822;2023-09-18T10:15:56;2.37;;;1.30;;
2564;SDS011;1292;48.020;7.822;2023-09-18T10:18:26;3.30;;;1.40;;
2564;SDS011;1292;48.020;7.822;2023-09-18T10:20:56;4.20;;;1.57;;
2564;SDS011;1292;48.020;7.822;2023-09-18T10:23:34;1.20;;;0.90;;
2564;SDS011;1292;48.020;7.822;2023-09-18T10:26:12;1.20;;;0.80;;
2564;SDS011;1292;48.020;7.822;2023-09-18T10:28:46;1.40;;;1.30;;
2564;SDS011;1292;48.020;7.822;2023-09-18T10:31:13;2.77;;;1.03;;
2564;SDS011;1292;48.020;7.822;2023-09-18T10:33:41;1.73;;;1.63;;
2564;SDS011;1292;48.020;7.822;2023-09-18T10:36:09;3.53;;;1.47;;
2564;SDS011;1292;48.020;7.822;2023-09-18T10:38:38;6.70;;;1.43;;
2564;SDS011;1292;48.020;7.822;2023-09-18T10:41:06;4.20;;;1.20;;
2564;SDS011;1292;48.020;7.822;2023-09-18T10:43:36;1.83;;;1.20;;
2564;SDS011;1292;48.020;7.822;2023-09-18T10:46:05;2.67;;;1.27;;
2564;SDS011;1292;48.020;7.822;2023-09-18T10:48:32;3.00;;;1.60;;
2564;SDS011;1292;48.020;7.822;2023-09-18T10:50:59;5.00;;;1.60;;
2564;SDS011;1292;48.020;7.822;2023-09-18T10:53:31;2.30;;;1.30;;
2564;SDS011;1292;48.020;7.822;2023-09-18T10:55:58;3.40;;;1.80;;
2564;SDS011;1292;48.020;7.822;2023-09-18T10:58:26;2.10;;;0.90;;
2564;SDS011;1292;48.020;7.822;2023-09-18T11:00:53;2.40;;;1.10;;
2564;SDS011;1292;48.020;7.822;2023-09-18T11:03:24;1.67;;;1.00;;
2564;SDS011;1292;48.020;7.822;2023-09-18T11:06:01;1.67;;;1.20;;
2564;SDS011;1292;48.020;7.822;2023-09-18T11:08:31;1.43;;;0.93;;
2564;SDS011;1292;48.020;7.822;2023-09-18T11:11:01;1.07;;;0.97;;
2564;SDS011;1292;48.020;7.822;2023-09-18T11:13:35;1.10;;;0.77;;
2564;SDS011;1292;48.020;7.822;2023-09-18T11:16:13;1.77;;;1.20;;
2564;SDS011;1292;48.020;7.822;2023-09-18T11:18:44;1.90;;;1.20;;
2564;SDS011;1292;48.020;7.822;2023-09-18T11:21:13;1.83;;;0.90;;
2564;SDS011;1292;48.020;7.822;2023-09-18T11:23:43;0.93;;;0.80;;
2564;SDS011;1292;48.020;7.822;2023-09-18T11:26:10;1.00;;;0.93;;
2564;SDS011;1292;48.020;7.822;2023-09-18T11:28:37;0.90;;;0.90;;
2564;SDS011;1292;48.020;7.822;2023-09-18T11:31:05;1.30;;;1.10;;
2564;SDS011;1292;48.020;7.822;2023-09-18T11:33:33;3.93;;;1.00;;
2564;SDS011;1292;48.020;7.822;2023-09-18T11:36:06;2.70;;;1.37;;
2564;SDS011;1292;48.020;7.822;2023-09-18T11:38:50;3.13;;;1.23;;
2564;SDS011;1292;48.020;7.822;2023-09-18T11:41:22;1.20;;;0.87;;
2564;SDS011;1292;48.020;7.822;2023-09-18T11:43:51;1.00;;;0.90;;
2564;SDS011;1292;48.020;7.822;2023-09-18T11:46:18;2.80;;;1.10;;
2564;SDS011;1292;48.020;7.822;2023-09-18T11:48:46;1.07;;;0.70;;
2564;SDS011;1292;48.020;7.822;2023-09-18T11:51:21;1.20;;;1.10;;
2564;SDS011;1292;48.020;7.822;2023-09-18T11:53:49;2.23;;;0.60;;
2564;SDS011;1292;48.020;7.822;2023-09-18T11:56:21;1.10;;;0.83;;
2564;SDS011;1292;48.020;7.822;2023-09-18T11:58:49;1.57;;;1.20;;
2564;SDS011;1292;48.020;7.822;2023-09-18T12:01:17;1.23;;;0.97;;
2564;SDS011;1292;48.020;7.822;2023-09-18T12:03:44;1.67;;;0.87;;
2564;SDS011;1292;48.020;7.822;2023-09-18T12:06:13;1.30;;;1.20;;
2564;SDS011;1292;48.020;7.822;2023-09-18T12:08:42;1.23;;;0.93;;
2564;SDS011;1292;48.020;7.822;2023-09-18T12:11:09;1.40;;;1.10;;
2564;SDS011;1292;48.020;7.822;2023-09-18T12:13:41;3.33;;;0.83;;
2564;SDS011;1292;48.020;7.822;2023-09-18T12:16:08;0.90;;;0.80;;
2564;SDS011;1292;48.020;7.822;2023-09-18T12:18:35;2.10;;;1.07;;
2564;SDS011;1292;48.020;7.822;2023-09-18T12:21:05;1.60;;;0.80;;
2564;SDS011;1292;48.020;7.822;2023-09-18T12:23:39;4.10;;;1.40;;
2564;SDS011;1292;48.020;7.822;2023-09-18T12:26:10;1.37;;;0.90;;
2564;SDS011;1292;48.020;7.822;2023-09-18T12:28:38;1.67;;;0.90;;
2564;SDS011;1292;48.020;7.822;2023-09-18T12:31:06;1.43;;;1.10;;
2564;SDS011;1292;48.020;7.822;2023-09-18T12:33:37;1.27;;;0.80;;
2564;SDS011;1292;48.020;7.822;2023-09-18T12:36:05;3.13;;;1.03;;
2564;SDS011;1292;48.020;7.822;2023-09-18T12:38:33;1.67;;;0.83;;
2564;SDS011;1292;48.020;7.822;2023-09-18T12:41:02;2.20;;;1.20;;
2564;SDS011;1292;48.020;7.822;2023-09-18T12:43:34;1.80;;;0.93;;
2564;SDS011;1292;48.020;7.822;2023-09-18T12:46:04;1.47;;;1.13;;
2564;SDS011;1292;48.020;7.822;2023-09-18T12:48:32;2.17;;;1.23;;
2564;SDS011;1292;48.020;7.822;2023-09-18T12:51:02;2.07;;;0.93;;
2564;SDS011;1292;48.020;7.822;2023-09-18T12:53:30;1.10;;;0.90;;
2564;SDS011;1292;48.020;7.822;2023-09-18T12:56:06;2.23;;;0.70;;
2564;SDS011;1292;48.020;7.822;2023-09-18T12:58:36;2.00;;;1.20;;
2564;SDS011;1292;48.020;7.822;2023-09-18T13:01:04;0.77;;;0.77;;
2564;SDS011;1292;48.020;7.822;2023-09-18T13:03:35;1.00;;;0.90;;
2564;SDS011;1292;48.020;7.822;2023-09-18T13:06:07;0.80;;;0.80;;
2564;SDS011;1292;48.020;7.822;2023-09-18T13:08:35;2.23;;;0.93;;
2564;SDS011;1292;48.020;7.822;2023-09-18T13:11:02;1.33;;;1.03;;
2564;SDS011;1292;48.020;7.822;2023-09-18T13:13:29;2.33;;;1.20;;
2564;SDS011;1292;48.020;7.822;2023-09-18T13:15:58;0.90;;;0.77;;
2564;SDS011;1292;48.020;7.822;2023-09-18T13:18:26;3.43;;;1.43;;
2564;SDS011;1292;48.020;7.822;2023-09-18T13:20:53;1.80;;;1.00;;
2564;SDS011;1292;48.020;7.822;2023-09-18T13:23:20;1.43;;;1.00;;
2564;SDS011;1292;48.020;7.822;2023-09-18T13:25:58;2.13;;;1.00;;
2564;SDS011;1292;48.020;7.822;2023-09-18T13:28:25;2.10;;;1.40;;
2564;SDS011;1292;48.020;7.822;2023-09-18T13:30:52;1.70;;;1.00;;
2564;SDS011;1292;48.020;7.822;2023-09-18T13:33:20;1.40;;;0.90;;
2564;SDS011;1292;48.020;7.822;2023-09-18T13:35:48;1.67;;;1.10;;
2564;SDS011;1292;48.020;7.822;2023-09-18T13:38:15;1.30;;;1.17;;
2564;SDS011;1292;48.020;7.822;2023-09-18T13:40:44;3.70;;;1.03;;
2564;SDS011;1292;48.020;7.822;2023-09-18T13:43:12;1.73;;;0.97;;
2564;SDS011;1292;48.020;7.822;2023-09-18T13:45:41;3.40;;;1.30;;
2564;SDS011;1292;48.020;7.822;2023-09-18T13:48:08;1.30;;;1.20;;
2564;SDS011;1292;48.020;7.822;2023-09-18T13:50:36;0.73;;;0.73;;
2564;SDS011;1292;48.020;7.822;2023-09-18T13:53:03;3.13;;;1.30;;
2564;SDS011;1292;48.020;7.822;2023-09-18T13:55:30;1.20;;;1.00;;
2564;SDS011;1292;48.020;7.822;2023-09-18T13:57:57;1.20;;;1.10;;
2564;SDS011;1292;48.020;7.822;2023-09-18T14:00:24;1.00;;;1.00;;
2564;SDS011;1292;48.020;7.822;2023-09-18T14:02:51;1.37;;;1.27;;
2564;SDS011;1292;48.020;7.822;2023-09-18T14:05:18;1.30;;;1.20;;
2564;SDS011;1292;48.020;7.822;2023-09-18T14:07:47;2.30;;;1.10;;
2564;SDS011;1292;48.020;7.822;2023-09-18T14:10:13;1.53;;;1.20;;
2564;SDS011;1292;48.020;7.822;2023-09-18T14:12:43;1.57;;;0.80;;
2564;SDS011;1292;48.020;7.822;2023-09-18T14:15:10;4.10;;;1.40;;
2564;SDS011;1292;48.020;7.822;2023-09-18T14:17:37;2.67;;;1.03;;
2564;SDS011;1292;48.020;7.822;2023-09-18T14:20:05;2.00;;;1.20;;
2564;SDS011;1292;48.020;7.822;2023-09-18T14:22:33;1.47;;;1.10;;
2564;SDS011;1292;48.020;7.822;2023-09-18T14:25:01;2.27;;;1.13;;
2564;SDS011;1292;48.020;7.822;2023-09-18T14:27:30;2.53;;;1.03;;
2564;SDS011;1292;48.020;7.822;2023-09-18T14:29:57;1.30;;;1.20;;
2564;SDS011;1292;48.020;7.822;2023-09-18T14:32:26;1.90;;;1.07;;
2564;SDS011;1292;48.020;7.822;2023-09-18T14:34:52;3.47;;;1.40;;
2564;SDS011;1292;48.020;7.822;2023-09-18T14:37:19;1.00;;;0.90;;
2564;SDS011;1292;48.020;7.822;2023-09-18T14:39:46;1.50;;;1.00;;
2564;SDS011;1292;48.020;7.822;2023-09-18T14:42:14;1.30;;;0.93;;
2564;SDS011;1292;48.020;7.822;2023-09-18T14:44:41;3.33;;;1.77;;
2564;SDS011;1292;48.020;7.822;2023-09-18T14:47:10;2.97;;;1.57;;
2564;SDS011;1292;48.020;7.822;2023-09-18T14:49:36;4.23;;;1.77;;
2564;SDS011;1292;48.020;7.822;2023-09-18T14:52:04;3.83;;;1.20;;
2564;SDS011;1292;48.020;7.822;2023-09-18T14:54:30;1.23;;;1.10;;
2564;SDS011;1292;48.020;7.822;2023-09-18T14:56:57;4.00;;;1.30;;
2564;SDS011;1292;48.020;7.822;2023-09-18T14:59:27;1.60;;;1.13;;
2564;SDS011;1292;48.020;7.822;2023-09-18T15:01:54;3.93;;;1.37;;
2564;SDS011;1292;48.020;7.822;2023-09-18T15:04:21;2.97;;;1.47;;
2564;SDS011;1292;48.020;7.822;2023-09-18T15:06:48;3.30;;;1.10;;
2564;SDS011;1292;48.020;7.822;2023-09-18T15:09:15;2.07;;;1.07;;
2564;SDS011;1292;48.020;7.822;2023-09-18T15:11:42;1.43;;;1.27;;
2564;SDS011;1292;48.020;7.822;2023-09-18T15:14:09;1.77;;;1.23;;
2564;SDS011;1292;48.020;7.822;2023-09-18T15:16:38;1.13;;;1.00;;
2564;SDS011;1292;48.020;7.822;2023-09-18T15:19:04;2.53;;;1.63;;
2564;SDS011;1292;48.020;7.822;2023-09-18T15:21:33;3.00;;;1.47;;
2564;SDS011;1292;48.020;7.822;2023-09-18T15:24:01;2.00;;;1.43;;
2564;SDS011;1292;48.020;7.822;2023-09-18T15:26:28;1.30;;;1.17;;
2564;SDS011;1292;48.020;7.822;2023-09-18T15:28:56;1.60;;;1.30;;
2564;SDS011;1292;48.020;7.822;2023-09-18T15:31:23;6.00;;;1.57;;
2564;SDS011;1292;48.020;7.822;2023-09-18T15:33:51;2.17;;;1.30;;
2564;SDS011;1292;48.020;7.822;2023-09-18T15:36:19;4.97;;;1.57;;
2564;SDS011;1292;48.020;7.822;2023-09-18T15:38:48;1.97;;;1.30;;
2564;SDS011;1292;48.020;7.822;2023-09-18T15:41:15;2.30;;;1.40;;
2564;SDS011;1292;48.020;7.822;2023-09-18T15:43:42;3.97;;;1.43;;
2564;SDS011;1292;48.020;7.822;2023-09-18T15:46:10;2.63;;;1.17;;
2564;SDS011;1292;48.020;7.822;2023-09-18T15:48:38;1.57;;;1.10;;
2564;SDS011;1292;48.020;7.822;2023-09-18T15:51:06;2.00;;;1.30;;
2564;SDS011;1292;48.020;7.822;2023-09-18T15:53:33;1.93;;;1.37;;
2564;SDS011;1292;48.020;7.822;2023-09-18T15:55:59;1.00;;;0.80;;
2564;SDS011;1292;48.020;7.822;2023-09-18T15:58:26;1.43;;;1.07;;
2564;SDS011;1292;48.020;7.822;2023-09-18T16:00:53;3.83;;;2.13;;
2564;SDS011;1292;48.020;7.822;2023-09-18T16:03:23;1.30;;;1.20;;
2564;SDS011;1292;48.020;7.822;2023-09-18T16:05:50;3.00;;;1.30;;
2564;SDS011;1292;48.020;7.822;2023-09-18T16:08:20;2.00;;;1.17;;
2564;SDS011;1292;48.020;7.822;2023-09-18T16:10:47;1.80;;;1.50;;
2564;SDS011;1292;48.020;7.822;2023-09-18T16:13:13;2.30;;;1.33;;
2564;SDS011;1292;48.020;7.822;2023-09-18T16:15:40;1.43;;;1.33;;
2564;SDS011;1292;48.020;7.822;2023-09-18T16:18:08;1.53;;;1.07;;
2564;SDS011;1292;48.020;7.822;2023-09-18T16:20:35;1.90;;;1.50;;
2564;SDS011;1292;48.020;7.822;2023-09-18T16:23:02;3.33;;;1.17;;
2564;SDS011;1292;48.020;7.822;2023-09-18T16:25:31;1.70;;;1.23;;
2564;SDS011;1292;48.020;7.822;2023-09-18T16:27:57;1.23;;;1.13;;
2564;SDS011;1292;48.020;7.822;2023-09-18T16:30:26;1.27;;;1.17;;
2564;SDS011;1292;48.020;7.822;2023-09-18T16:32:53;4.40;;;1.30;;
2564;SDS011;1292;48.020;7.822;2023-09-18T16:35:20;2.57;;;1.27;;
2564;SDS011;1292;48.020;7.822;2023-09-18T16:37:46;1.93;;;1.40;;
2564;SDS011;1292;48.020;7.822;2023-09-18T16:40:13;2.00;;;1.10;;
2564;SDS011;1292;48.020;7.822;2023-09-18T16:42:41;3.10;;;1.50;;
2564;SDS011;1292;48.020;7.822;2023-09-18T16:45:10;1.90;;;1.30;;
2564;SDS011;1292;48.020;7.822;2023-09-18T16:47:36;2.40;;;1.30;;
2564;SDS011;1292;48.020;7.822;2023-09-18T16:50:04;1.27;;;1.17;;
2564;SDS011;1292;48.020;7.822;2023-09-18T16:52:31;2.43;;;1.50;;
2564;SDS011;1292;48.020;7.822;2023-09-18T16:54:58;1.63;;;1.30;;
2564;SDS011;1292;48.020;7.822;2023-09-18T16:57:29;1.90;;;1.40;;
2564;SDS011;1292;48.020;7.822;2023-09-18T16:59:58;4.40;;;1.60;;
2564;SDS011;1292;48.020;7.822;2023-09-18T17:02:25;3.90;;;1.53;;
2564;SDS011;1292;48.020;7.822;2023-09-18T17:04:52;2.00;;;1.30;;
2564;SDS011;1292;48.020;7.822;2023-09-18T17:07:20;1.40;;;1.30;;
2564;SDS011;1292;48.020;7.822;2023-09-18T17:09:47;3.60;;;1.67;;
2564;SDS011;1292;48.020;7.822;2023-09-18T17:12:14;3.27;;;1.30;;
2564;SDS011;1292;48.020;7.822;2023-09-18T17:14:41;4.73;;;1.60;;
2564;SDS011;1292;48.020;7.822;2023-09-18T17:17:09;3.00;;;1.87;;
2564;SDS011;1292;48.020;7.822;2023-09-18T17:19:36;3.57;;;1.40;;
2564;SDS011;1292;48.020;7.822;2023-09-18T17:22:02;3.70;;;1.87;;
2564;SDS011;1292;48.020;7.822;2023-09-18T17:24:29;3.37;;;1.73;;
2564;SDS011;1292;48.020;7.822;2023-09-18T17:26:59;3.07;;;1.70;;
2564;SDS011;1292;48.020;7.822;2023-09-18T17:29:26;3.60;;;1.60;;
2564;SDS011;1292;48.020;7.822;2023-09-18T17:31:53;6.83;;;1.97;;
2564;SDS011;1292;48.020;7.822;2023-09-18T17:34:21;3.83;;;1.80;;
2564;SDS011;1292;48.020;7.822;2023-09-18T17:36:48;3.83;;;2.03;;
2564;SDS011;1292;48.020;7.822;2023-09-18T17:39:14;4.37;;;2.00;;
2564;SDS011;1292;48.020;7.822;2023-09-18T17:41:41;4.90;;;2.00;;
2564;SDS011;1292;48.020;7.822;2023-09-18T17:44:08;1.87;;;1.63;;
2564;SDS011;1292;48.020;7.822;2023-09-18T17:46:36;2.20;;;1.53;;
2564;SDS011;1292;48.020;7.822;2023-09-18T17:49:04;2.63;;;1.90;;
2564;SDS011;1292;48.020;7.822;2023-09-18T17:51:34;2.50;;;1.60;;
2564;SDS011;1292;48.020;7.822;2023-09-18T17:54:01;2.97;;;1.60;;
2564;SDS011;1292;48.020;7.822;2023-09-18T17:56:30;2.10;;;1.60;;
2564;SDS011;1292;48.020;7.822;2023-09-18T17:58:57;2.63;;;1.70;;
2564;SDS011;1292;48.020;7.822;2023-09-18T18:01:24;2.70;;;1.63;;
2564;SDS011;1292;48.020;7.822;2023-09-18T18:03:51;2.40;;;1.83;;
2564;SDS011;1292;48.020;7.822;2023-09-18T18:06:23;2.00;;;1.40;;
2564;SDS011;1292;48.020;7.822;2023-09-18T18:08:52;2.40;;;1.50;;
2564;SDS011;1292;48.020;7.822;2023-09-18T18:11:19;3.43;;;1.43;;
2564;SDS011;1292;48.020;7.822;2023-09-18T18:13:47;1.70;;;1.60;;
2564;SDS011;1292;48.020;7.822;2023-09-18T18:16:13;2.43;;;1.33;;
2564;SDS011;1292;48.020;7.822;2023-09-18T18:18:40;4.70;;;2.10;;
2564;SDS011;1292;48.020;7.822;2023-09-18T18:21:09;1.63;;;1.23;;
2564;SDS011;1292;48.020;7.822;2023-09-18T18:23:36;5.40;;;1.10;;
2564;SDS011;1292;48.020;7.822;2023-09-18T18:26:07;1.90;;;1.80;;
2564;SDS011;1292;48.020;7.822;2023-09-18T18:28:36;1.80;;;0.93;;
2564;SDS011;1292;48.020;7.822;2023-09-18T18:31:04;0.80;;;0.80;;
2564;SDS011;1292;48.020;7.822;2023-09-18T18:33:31;1.30;;;0.73;;
2564;SDS011;1292;48.020;7.822;2023-09-18T18:35:59;1.37;;;1.10;;
2564;SDS011;1292;48.020;7.822;2023-09-18T18:38:26;2.30;;;1.10;;
2564;SDS011;1292;48.020;7.822;2023-09-18T18:40:56;1.67;;;0.97;;
2564;SDS011;1292;48.020;7.822;2023-09-18T18:43:25;4.67;;;2.20;;
2564;SDS011;1292;48.020;7.822;2023-09-18T18:45:53;7.80;;;3.60;;
2564;SDS011;1292;48.020;7.822;2023-09-18T18:48:21;9.10;;;4.90;;
2564;SDS011;1292;48.020;7.822;2023-09-18T18:50:50;4.67;;;3.17;;
2564;SDS011;1292;48.020;7.822;2023-09-18T18:53:17;4.67;;;2.67;;
2564;SDS011;1292;48.020;7.822;2023-09-18T18:55:45;5.33;;;2.43;;
2564;SDS011;1292;48.020;7.822;2023-09-18T18:58:12;2.57;;;1.67;;
2564;SDS011;1292;48.020;7.822;2023-09-18T19:00:40;3.20;;;1.60;;
2564;SDS011;1292;48.020;7.822;2023-09-18T19:03:09;2.77;;;1.47;;
2564;SDS011;1292;48.020;7.822;2023-09-18T19:05:56;1.47;;;1.07;;
2564;SDS011;1292;48.020;7.822;2023-09-18T19:08:28;1.53;;;1.33;;
2564;SDS011;1292;48.020;7.822;2023-09-18T19:11:10;2.63;;;1.50;;
2564;SDS011;1292;48.020;7.822;2023-09-18T19:13:46;3.33;;;1.30;;
2564;SDS011;1292;48.020;7.822;2023-09-18T19:16:43;2.67;;;2.00;;
2564;SDS011;1292;48.020;7.822;2023-09-18T19:19:21;1.63;;;1.33;;
2564;SDS011;1292;48.020;7.822;2023-09-18T19:21:56;3.90;;;1.50;;
2564;SDS011;1292;48.020;7.822;2023-09-18T19:24:22;2.33;;;1.60;;
2564;SDS011;1292;48.020;7.822;2023-09-18T19:26:49;1.40;;;1.30;;
2564;SDS011;1292;48.020;7.822;2023-09-18T19:29:16;2.07;;;1.10;;
2564;SDS011;1292;48.020;7.822;2023-09-18T19:31:45;1.83;;;1.23;;
2564;SDS011;1292;48.020;7.822;2023-09-18T19:34:13;1.77;;;1.43;;
2564;SDS011;1292;48.020;7.822;2023-09-18T19:36:46;1.73;;;1.60;;
2564;SDS011;1292;48.020;7.822;2023-09-18T19:39:22;1.10;;;1.00;;
2564;SDS011;1292;48.020;7.822;2023-09-18T19:41:49;2.60;;;1.10;;
2564;SDS011;1292;48.020;7.822;2023-09-18T19:44:16;1.30;;;1.20;;
2564;SDS011;1292;48.020;7.822;2023-09-18T19:46:44;1.50;;;1.13;;
2564;SDS011;1292;48.020;7.822;2023-09-18T19:49:11;1.10;;;0.93;;
2564;SDS011;1292;48.020;7.822;2023-09-18T19:51:38;2.63;;;1.70;;
2564;SDS011;1292;48.020;7.822;2023-09-18T19:54:05;1.27;;;0.90;;
2564;SDS011;1292;48.020;7.822;2023-09-18T19:56:32;1.23;;;1.13;;
2564;SDS011;1292;48.020;7.822;2023-09-18T19:58:59;0.97;;;0.90;;
2564;SDS011;1292;48.020;7.822;2023-09-18T20:01:26;3.17;;;1.53;;
2564;SDS011;1292;48.020;7.822;2023-09-18T20:03:56;2.20;;;1.20;;
2564;SDS011;1292;48.020;7.822;2023-09-18T20:06:24;1.60;;;1.50;;
2564;SDS011;1292;48.020;7.822;2023-09-18T20:08:54;1.40;;;1.03;;
2564;SDS011;1292;48.020;7.822;2023-09-18T20:11:21;3.43;;;1.63;;
2564;SDS011;1292;48.020;7.822;2023-09-18T20:13:49;1.37;;;1.20;;
2564;SDS011;1292;48.020;7.822;2023-09-18T20:16:16;4.53;;;1.50;;
2564;SDS011;1292;48.020;7.822;2023-09-18T20:18:43;1.50;;;1.17;;
2564;SDS011;1292;48.020;7.822;2023-09-18T20:21:12;2.50;;;1.57;;
2564;SDS011;1292;48.020;7.822;2023-09-18T20:23:39;4.50;;;2.00;;
2564;SDS011;1292;48.020;7.822;2023-09-18T20:26:06;4.97;;;2.60;;
2564;SDS011;1292;48.020;7.822;2023-09-18T20:28:33;3.33;;;2.53;;
2564;SDS011;1292;48.020;7.822;2023-09-18T20:31:01;4.60;;;2.37;;
2564;SDS011;1292;48.020;7.822;2023-09-18T20:33:29;2.70;;;1.93;;
2564;SDS011;1292;48.020;7.822;2023-09-18T20:35:57;5.40;;;2.40;;
2564;SDS011;1292;48.020;7.822;2023-09-18T20:38:27;3.97;;;1.97;;
2564;SDS011;1292;48.020;7.822;2023-09-18T20:40:56;3.33;;;2.30;;
2564;SDS011;1292;48.020;7.822;2023-09-18T20:43:24;3.40;;;1.67;;
2564;SDS011;1292;48.020;7.822;2023-09-18T20:45:51;3.20;;;1.97;;
2564;SDS011;1292;48.020;7.822;2023-09-18T20:48:20;1.67;;;1.50;;
2564;SDS011;1292;48.020;7.822;2023-09-18T20:50:48;4.63;;;2.17;;
2564;SDS011;1292;48.020;7.822;2023-09-18T20:53:16;4.53;;;2.20;;
2564;SDS011;1292;48.020;7.822;2023-09-18T20:55:45;3.90;;;1.60;;
2564;SDS011;1292;48.020;7.822;2023-09-18T20:58:12;3.70;;;1.80;;
2564;SDS011;1292;48.020;7.822;2023-09-18T21:00:40;5.53;;;1.90;;
2564;SDS011;1292;48.020;7.822;2023-09-18T21:03:06;1.53;;;1.43;;
2564;SDS011;1292;48.020;7.822;2023-09-18T21:05:33;2.07;;;1.40;;
2564;SDS011;1292;48.020;7.822;2023-09-18T21:08:00;2.30;;;1.50;;